Time;durP1;ratioP1;P1;durP2;ratioP2;P2;SDS_P1;SDS_P2;PMS_P1;PMS_P2;Temp;Humidity;BMP_temperature;BMP_pressure;BME280_temperature;BME280_humidity;BME280_pressure;Samples;Min_cycle;Max_cycle;Signal;HPM_P1;HPM_P2
2024/04/06 00:02:23;;;;;;;;;;;13.80;35.60;15.50;98435.00;;;;5054176;28;2462;-38
2024/04/06 00:05:04;;;;;;;;;;;13.80;35.70;15.50;98435.00;;;;5047740;28;1680;-38
2024/04/06 00:07:38;;;;;;;;;;;13.80;35.70;15.50;98436.00;;;;5050727;28;1966;-37
2024/04/06 00:10:21;;;;;;;;;;;13.80;35.70;15.50;98429.00;;;;5052306;28;1851;-39
2024/04/06 00:12:53;;;;;;;;;;;13.80;35.70;15.50;98428.00;;;;5044751;28;1979;-37
2024/04/06 00:15:26;;;;;;;;;;;13.80;35.70;15.50;98446.00;;;;5053423;28;1690;-37
2024/04/06 00:17:58;;;;;;;;;;;13.80;35.70;15.40;98433.00;;;;5050225;28;1404;-38
2024/04/06 00:20:36;;;;;;;;;;;13.80;35.70;15.50;98435.00;;;;5050653;28;1453;-39
2024/04/06 00:23:09;;;;;;;;;;;13.80;35.70;15.50;98436.00;;;;5051871;28;1474;-39
2024/04/06 00:25:47;;;;;;;;;;;13.80;35.70;15.50;98431.00;;;;5053770;28;1961;-37
2024/04/06 00:28:17;;;;;;;;;;;13.80;35.70;15.40;98436.00;;;;5050662;28;1987;-38
2024/04/06 00:30:50;;;;;;;;;;;13.80;35.70;15.50;98444.00;;;;5047754;28;1388;-38
2024/04/06 00:33:25;;;;;;;;;;;13.80;35.70;15.50;98436.00;;;;5052396;28;2018;-38
2024/04/06 00:36:05;;;;;;;;;;;13.80;35.70;15.50;98437.00;;;;5046910;28;1689;-37
2024/04/06 00:38:34;;;;;;;;;;;13.80;35.70;15.50;98441.00;;;;5050879;28;1871;-38
2024/04/06 00:41:10;;;;;;;;;;;13.80;35.70;15.50;98442.00;;;;5051233;28;1937;-38
2024/04/06 00:43:42;;;;;;;;;;;13.80;35.70;15.40;98439.00;;;;5050271;28;1642;-39
2024/04/06 00:46:16;;;;;;;;;;;13.80;35.70;15.40;98436.00;;;;5054069;28;1436;-38
2024/04/06 00:48:48;;;;;;;;;;;13.80;35.70;15.50;98446.00;;;;5050111;28;1981;-38
2024/04/06 00:51:25;;;;;;;;;;;13.80;35.70;15.40;98440.00;;;;5050380;28;1957;-38
2024/04/06 00:54:01;;;;;;;;;;;13.80;35.70;15.40;98451.00;;;;5043860;28;1898;-39
2024/04/06 00:56:40;;;;;;;;;;;13.70;35.70;15.40;98441.00;;;;5061560;28;1802;-38
2024/04/06 00:59:23;;;;;;;;;;;13.80;35.70;15.50;98450.00;;;;5051159;28;1693;-37
2024/04/06 01:01:59;;;;;;;;;;;13.80;35.70;15.40;98441.00;;;;5047558;28;1775;-38
2024/04/06 01:04:30;;;;;;;;;;;13.80;35.70;15.40;98443.00;;;;5049706;28;1701;-38
2024/04/06 01:06:59;;;;;;;;;;;13.70;35.70;15.40;98452.00;;;;5077641;22;3491;-40
2024/04/06 01:09:25;;;;;;;;;;;13.70;35.60;15.40;98454.00;;;;5077276;28;1670;-40
2024/04/06 01:11:52;;;;;;;;;;;13.70;35.70;15.40;98460.00;;;;5070863;28;1812;-40
2024/04/06 01:14:19;;;;;;;;;;;13.70;35.70;15.40;98427.00;;;;5078545;28;1652;-40
2024/04/06 01:16:46;;;;;;;;;;;13.70;35.70;15.40;98452.00;;;;5068490;28;1441;-40
2024/04/06 01:19:12;;;;;;;;;;;13.70;35.70;15.40;98456.00;;;;5075777;28;1681;-40
2024/04/06 01:21:39;;;;;;;;;;;13.70;35.70;15.50;98442.00;;;;5072909;28;1930;-40
2024/04/06 01:24:22;;;;;;;;;;;13.70;35.70;15.40;98440.00;;;;5076566;28;1776;-40
2024/04/06 01:26:49;;;;;;;;;;;13.70;35.70;15.40;98443.00;;;;5072647;28;1989;-40
2024/04/06 01:29:15;;;;;;;;;;;13.70;35.70;15.40;98452.00;;;;5080040;28;1697;-40
2024/04/06 01:31:42;;;;;;;;;;;13.70;35.70;15.40;98453.00;;;;5076559;28;1781;-40
2024/04/06 01:34:08;;;;;;;;;;;13.70;35.70;15.40;98451.00;;;;5076477;28;1816;-40
2024/04/06 01:36:36;;;;;;;;;;;13.80;35.70;15.30;98455.00;;;;5071417;28;2894;-40
2024/04/06 01:39:02;;;;;;;;;;;13.70;35.70;15.40;98461.00;;;;5070974;28;1678;-40
2024/04/06 01:41:31;;;;;;;;;;;13.70;35.70;15.40;98467.00;;;;5069280;28;1879;-40
2024/04/06 01:43:57;;;;;;;;;;;13.70;35.70;15.40;98468.00;;;;5070325;28;1522;-40
2024/04/06 01:46:24;;;;;;;;;;;13.70;35.70;15.40;98468.00;;;;5068868;28;1816;-40
2024/04/06 01:48:50;;;;;;;;;;;13.70;35.70;15.40;98464.00;;;;5070560;28;1984;-40
2024/04/06 01:51:17;;;;;;;;;;;13.70;35.70;15.40;98470.00;;;;5070722;28;1903;-39
2024/04/06 01:53:45;;;;;;;;;;;13.70;35.70;15.40;98479.00;;;;5070054;28;1711;-41
2024/04/06 01:56:12;;;;;;;;;;;13.70;35.70;15.40;98472.00;;;;5069934;28;1660;-41
2024/04/06 01:58:40;;;;;;;;;;;13.70;35.70;15.40;98470.00;;;;5069304;28;1780;-41
2024/04/06 02:01:07;;;;;;;;;;;13.70;35.70;15.40;98460.00;;;;5070222;28;1796;-42
2024/04/06 02:03:34;;;;;;;;;;;13.70;35.70;15.40;98460.00;;;;5069958;28;1868;-41
2024/04/06 02:06:01;;;;;;;;;;;13.70;35.70;15.40;98457.00;;;;5069642;28;1680;-40
2024/04/06 02:08:27;;;;;;;;;;;13.70;35.70;15.40;98456.00;;;;5068459;28;1938;-40
2024/04/06 02:10:54;;;;;;;;;;;13.70;35.70;15.40;98465.00;;;;5069931;28;1698;-40
2024/04/06 02:13:21;;;;;;;;;;;13.70;35.70;15.40;98455.00;;;;5069302;28;1941;-40
2024/04/06 02:15:49;;;;;;;;;;;13.70;36.40;15.40;98468.00;;;;5069550;28;1549;-40
2024/04/06 02:18:15;;;;;;;;;;;13.70;35.70;15.40;98462.00;;;;5068929;28;1689;-40
2024/04/06 02:20:42;;;;;;;;;;;13.70;35.70;15.40;98459.00;;;;5068271;28;1545;-40
2024/04/06 02:23:08;;;;;;;;;;;13.70;35.70;15.40;98461.00;;;;5070061;28;1645;-40
2024/04/06 02:25:35;;;;;;;;;;;13.70;35.70;15.40;98468.00;;;;5068241;28;1690;-40
2024/04/06 02:28:02;;;;;;;;;;;13.70;35.70;15.40;98468.00;;;;5069333;28;2431;-40
2024/04/06 02:30:29;;;;;;;;;;;13.70;35.70;15.40;98468.00;;;;5067852;28;1956;-40
2024/04/06 02:32:56;;;;;;;;;;;13.70;35.70;15.40;98473.00;;;;5069942;28;1684;-40
2024/04/06 02:35:23;;;;;;;;;;;13.70;35.70;15.40;98468.00;;;;5068692;28;1644;-40
2024/04/06 02:37:50;;;;;;;;;;;13.70;35.70;15.40;98471.00;;;;5067832;28;1673;-41
2024/04/06 02:40:17;;;;;;;;;;;13.70;35.70;15.40;98453.00;;;;5068121;28;1638;-40
2024/04/06 02:42:43;;;;;;;;;;;13.70;35.70;15.40;98465.00;;;;5068020;28;1602;-40
2024/04/06 02:45:10;;;;;;;;;;;13.70;35.70;15.40;98457.00;;;;5065701;28;1610;-40
2024/04/06 02:47:37;;;;;;;;;;;13.70;35.70;15.40;98463.00;;;;5067403;28;2246;-40
2024/04/06 02:50:06;;;;;;;;;;;13.70;35.70;15.40;98460.00;;;;5068996;28;1824;-40
2024/04/06 02:52:32;;;;;;;;;;;13.70;35.70;15.40;98447.00;;;;5067108;28;1690;-40
2024/04/06 02:54:59;;;;;;;;;;;13.70;35.70;15.40;98445.00;;;;5065746;28;1803;-40
2024/04/06 02:57:26;;;;;;;;;;;13.70;35.70;15.40;98437.00;;;;5067962;28;1536;-40
2024/04/06 02:59:53;;;;;;;;;;;13.70;35.70;15.40;98430.00;;;;5068680;28;1669;-40
2024/04/06 03:02:19;;;;;;;;;;;13.70;35.70;15.40;98436.00;;;;5068284;28;1693;-40
2024/04/06 03:04:46;;;;;;;;;;;13.70;35.70;15.40;98427.00;;;;5064894;28;1677;-40
2024/04/06 03:07:14;;;;;;;;;;;13.70;35.70;15.40;98435.00;;;;5068001;28;1985;-41
2024/04/06 03:09:41;;;;;;;;;;;13.70;35.70;15.40;98425.00;;;;5066878;28;1661;-41
2024/04/06 03:12:08;;;;;;;;;;;13.70;35.70;15.40;98425.00;;;;5068665;28;1677;-41
2024/04/06 03:14:35;;;;;;;;;;;13.70;35.70;15.40;98424.00;;;;5066362;28;2281;-41
2024/04/06 03:17:02;;;;;;;;;;;13.70;35.70;15.40;98435.00;;;;5068523;28;1526;-41
2024/04/06 03:19:29;;;;;;;;;;;13.70;35.70;15.40;98434.00;;;;5066880;28;1690;-41
2024/04/06 03:21:56;;;;;;;;;;;13.70;35.70;15.40;98458.00;;;;5081735;28;1818;-40
2024/04/06 03:24:25;;;;;;;;;;;13.70;35.70;15.40;98443.00;;;;5063814;28;1686;-41
2024/04/06 03:26:52;;;;;;;;;;;13.70;35.70;15.40;98451.00;;;;5068174;28;1496;-40
2024/04/06 03:29:19;;;;;;;;;;;13.70;35.70;15.40;98459.00;;;;5067169;28;1906;-40
2024/04/06 03:31:46;;;;;;;;;;;13.70;35.70;15.40;98444.00;;;;5067464;28;1691;-40
2024/04/06 03:34:13;;;;;;;;;;;13.70;35.70;15.40;98450.00;;;;5065189;28;1714;-40
2024/04/06 03:36:39;;;;;;;;;;;13.70;35.70;15.40;98439.00;;;;5062786;28;2773;-40
2024/04/06 03:39:07;;;;;;;;;;;13.70;35.70;15.40;98439.00;;;;5068160;28;1662;-40
2024/04/06 03:41:36;;;;;;;;;;;13.70;35.80;15.40;98441.00;;;;5064605;28;2752;-40
2024/04/06 03:44:03;;;;;;;;;;;13.70;35.70;15.40;98460.00;;;;5066980;28;1685;-40
2024/04/06 03:46:30;;;;;;;;;;;13.70;35.70;15.40;98450.00;;;;5064650;28;2170;-40
2024/04/06 03:48:56;;;;;;;;;;;13.70;35.70;15.30;98450.00;;;;5073517;28;1909;-40
2024/04/06 03:51:24;;;;;;;;;;;13.70;35.70;15.40;98450.00;;;;5067147;28;1877;-40
2024/04/06 03:53:51;;;;;;;;;;;13.70;35.70;15.40;98455.00;;;;5063630;28;2596;-40
2024/04/06 03:56:18;;;;;;;;;;;13.70;35.80;15.40;98452.00;;;;5076168;28;1677;-40
2024/04/06 03:58:45;;;;;;;;;;;13.70;35.70;15.40;98464.00;;;;5069199;28;1650;-40
2024/04/06 04:01:13;;;;;;;;;;;13.70;35.70;15.40;98474.00;;;;5074825;28;2307;-40
2024/04/06 04:03:39;;;;;;;;;;;13.70;35.70;15.40;98483.00;;;;5071213;28;1706;-40
2024/04/06 04:06:06;;;;;;;;;;;13.70;35.70;15.30;98480.00;;;;5069941;28;1800;-40
2024/04/06 04:08:33;;;;;;;;;;;13.60;35.70;15.30;98482.00;;;;5068921;28;1957;-40
2024/04/06 04:11:00;;;;;;;;;;;13.60;35.70;15.40;98465.00;;;;5070089;28;1630;-40
2024/04/06 04:13:26;;;;;;;;;;;13.60;35.70;15.40;98484.00;;;;5071316;28;1686;-40
2024/04/06 04:15:55;;;;;;;;;;;13.70;35.80;15.30;98484.00;;;;5066901;28;1673;-40
2024/04/06 04:18:21;;;;;;;;;;;13.70;35.70;15.40;98492.00;;;;5072626;28;1688;-40
2024/04/06 04:20:48;;;;;;;;;;;13.70;35.70;15.40;98494.00;;;;5069420;28;1682;-40
2024/04/06 04:23:14;;;;;;;;;;;13.60;35.70;15.40;98500.00;;;;5069468;28;1842;-40
2024/04/06 04:25:41;;;;;;;;;;;13.70;35.80;15.40;98501.00;;;;5066602;28;1661;-40
2024/04/06 04:28:07;;;;;;;;;;;13.70;35.80;15.40;98497.00;;;;5071022;28;1905;-40
2024/04/06 04:30:34;;;;;;;;;;;13.70;35.70;15.40;98499.00;;;;5072440;28;1699;-40
2024/04/06 04:33:02;;;;;;;;;;;13.60;35.70;15.40;98509.00;;;;5070554;28;1658;-40
2024/04/06 04:35:29;;;;;;;;;;;13.70;35.80;15.40;98511.00;;;;5070578;28;2071;-40
2024/04/06 04:37:55;;;;;;;;;;;13.60;35.70;15.40;98509.00;;;;5069746;28;2243;-40
2024/04/06 04:40:23;;;;;;;;;;;13.60;35.70;15.40;98513.00;;;;5072769;28;1684;-41
2024/04/06 04:42:49;;;;;;;;;;;13.60;35.70;15.30;98513.00;;;;5076799;28;1682;-40
2024/04/06 04:45:16;;;;;;;;;;;13.70;36.40;15.40;98524.00;;;;5076293;28;1913;-40
2024/04/06 04:47:42;;;;;;;;;;;13.60;35.70;15.30;98510.00;;;;5069321;28;2644;-40
2024/04/06 04:50:11;;;;;;;;;;;13.60;35.70;15.30;98508.00;;;;5078274;28;1878;-40
2024/04/06 04:52:37;;;;;;;;;;;13.60;35.70;15.40;98516.00;;;;5072644;28;1969;-41
2024/04/06 04:55:05;;;;;;;;;;;13.60;35.70;15.40;98510.00;;;;5076694;28;1645;-40
2024/04/06 04:57:32;;;;;;;;;;;13.60;35.80;15.40;98508.00;;;;5072242;28;1692;-40
2024/04/06 04:59:59;;;;;;;;;;;13.60;35.70;15.40;98508.00;;;;5073436;28;1933;-40
2024/04/06 05:02:25;;;;;;;;;;;13.60;35.70;15.40;98500.00;;;;5074225;28;1637;-40
2024/04/06 05:04:52;;;;;;;;;;;13.60;35.70;15.40;98495.00;;;;5070023;28;1829;-40
2024/04/06 05:07:21;;;;;;;;;;;13.60;35.70;15.30;98496.00;;;;5073650;28;2221;-40
2024/04/06 05:09:48;;;;;;;;;;;13.60;35.80;15.30;98490.00;;;;5074055;28;1910;-40
2024/04/06 05:12:14;;;;;;;;;;;13.60;35.80;15.30;98504.00;;;;5077300;28;1823;-40
2024/04/06 05:14:41;;;;;;;;;;;13.60;35.80;15.30;98507.00;;;;5069902;28;1645;-40
2024/04/06 05:17:08;;;;;;;;;;;13.60;35.70;15.40;98499.00;;;;5073511;28;1822;-40
2024/04/06 05:19:35;;;;;;;;;;;13.60;35.70;15.40;98503.00;;;;5068896;28;1839;-40
2024/04/06 05:22:02;;;;;;;;;;;13.60;35.80;15.30;98524.00;;;;5073519;28;1755;-41
2024/04/06 05:24:30;;;;;;;;;;;13.60;35.80;15.30;98536.00;;;;5073985;28;1832;-40
2024/04/06 05:26:58;;;;;;;;;;;13.60;35.70;15.30;98536.00;;;;5072596;28;2551;-40
2024/04/06 05:29:25;;;;;;;;;;;13.70;35.70;15.30;98539.00;;;;5071910;28;1914;-40
2024/04/06 05:31:54;;;;;;;;;;;13.60;35.70;15.30;98537.00;;;;5064291;28;1789;-40
2024/04/06 05:34:21;;;;;;;;;;;13.70;35.70;15.30;98531.00;;;;5073251;28;1671;-40
2024/04/06 05:36:47;;;;;;;;;;;13.70;35.70;15.40;98535.00;;;;5075794;28;1693;-40
2024/04/06 05:39:15;;;;;;;;;;;13.70;35.70;15.30;98535.00;;;;5078544;28;1921;-40
2024/04/06 05:41:42;;;;;;;;;;;13.70;35.70;15.30;98534.00;;;;5066838;28;1638;-40
2024/04/06 05:44:09;;;;;;;;;;;13.60;35.70;15.30;98544.00;;;;5074065;28;1732;-40
2024/04/06 05:46:35;;;;;;;;;;;13.60;35.70;15.40;98561.00;;;;5073133;28;1668;-40
2024/04/06 05:49:03;;;;;;;;;;;13.60;35.80;15.40;98568.00;;;;5073167;28;1910;-40
2024/04/06 05:51:29;;;;;;;;;;;13.60;35.80;15.40;98549.00;;;;5069708;28;1841;-40
2024/04/06 05:53:56;;;;;;;;;;;13.60;35.70;15.40;98561.00;;;;5074161;28;1640;-40
2024/04/06 05:56:23;;;;;;;;;;;13.70;35.70;15.40;98562.00;;;;5073706;28;1551;-40
2024/04/06 05:58:51;;;;;;;;;;;13.80;35.70;15.40;98564.00;;;;5073117;28;1748;-40
2024/04/06 06:01:17;;;;;;;;;;;13.70;35.70;15.50;98568.00;;;;5073936;28;1660;-40
2024/04/06 06:03:45;;;;;;;;;;;13.80;35.60;15.50;98563.00;;;;5074037;28;1670;-40
2024/04/06 06:06:12;;;;;;;;;;;13.90;35.50;15.60;98572.00;;;;5075584;28;1958;-40
2024/04/06 06:08:39;;;;;;;;;;;13.90;35.40;15.60;98570.00;;;;5074910;28;1987;-40
2024/04/06 06:11:05;;;;;;;;;;;14.00;35.50;15.70;98572.00;;;;5078630;28;1827;-40
2024/04/06 06:13:32;;;;;;;;;;;14.00;35.40;15.70;98556.00;;;;5070827;28;1846;-40
2024/04/06 06:16:01;;;;;;;;;;;14.10;35.30;15.80;98558.00;;;;5072178;28;1756;-40
2024/04/06 06:18:28;;;;;;;;;;;14.10;35.20;15.90;98565.00;;;;5076170;28;1805;-40
2024/04/06 06:20:55;;;;;;;;;;;14.20;35.10;15.90;98577.00;;;;5075363;28;1689;-40
2024/04/06 06:23:22;;;;;;;;;;;14.30;35.10;16.00;98574.00;;;;5074229;28;1671;-41
2024/04/06 06:25:48;;;;;;;;;;;14.30;35.00;16.00;98568.00;;;;5067807;28;1681;-40
2024/04/06 06:28:15;;;;;;;;;;;14.30;35.00;16.10;98560.00;;;;5073085;28;1898;-40
2024/04/06 06:30:42;;;;;;;;;;;14.40;34.90;16.10;98556.00;;;;5072938;28;1986;-40
2024/04/06 06:33:11;;;;;;;;;;;14.40;34.80;16.20;98554.00;;;;5071179;28;1797;-40
2024/04/06 06:35:37;;;;;;;;;;;14.50;34.80;16.20;98553.00;;;;5069491;28;1682;-40
2024/04/06 06:38:05;;;;;;;;;;;14.50;34.70;16.20;98551.00;;;;5071337;28;1654;-40
2024/04/06 06:40:31;;;;;;;;;;;14.60;34.80;16.30;98551.00;;;;5075839;28;1970;-40
2024/04/06 06:42:59;;;;;;;;;;;14.60;34.70;16.30;98561.00;;;;5066778;28;1667;-40
2024/04/06 06:45:25;;;;;;;;;;;14.70;34.70;16.30;98549.00;;;;5069447;28;1680;-40
2024/04/06 06:47:52;;;;;;;;;;;14.70;34.60;16.40;98560.00;;;;5069928;28;1961;-40
2024/04/06 06:50:19;;;;;;;;;;;14.70;34.50;16.40;98552.00;;;;5075211;28;1754;-40
2024/04/06 06:52:47;;;;;;;;;;;14.80;34.60;16.50;98550.00;;;;5066409;28;1717;-40
2024/04/06 06:55:13;;;;;;;;;;;14.80;34.60;16.60;98539.00;;;;5071813;28;1676;-40
2024/04/06 06:57:41;;;;;;;;;;;14.80;34.60;16.60;98544.00;;;;5064478;28;1665;-40
2024/04/06 07:00:08;;;;;;;;;;;14.90;34.60;16.60;98547.00;;;;5071442;28;2714;-40
2024/04/06 07:02:35;;;;;;;;;;;14.90;34.60;16.70;98551.00;;;;5073727;28;1829;-40
2024/04/06 07:05:01;;;;;;;;;;;14.90;34.60;16.80;98543.00;;;;5071464;28;1819;-40
2024/04/06 07:07:30;;;;;;;;;;;15.00;34.60;16.80;98551.00;;;;5064205;28;1676;-41
2024/04/06 07:09:57;;;;;;;;;;;15.10;34.50;16.80;98548.00;;;;5071096;28;1910;-40
2024/04/06 07:12:25;;;;;;;;;;;15.10;34.50;16.90;98546.00;;;;5070688;28;1505;-40
2024/04/06 07:14:51;;;;;;;;;;;15.20;34.50;16.90;98559.00;;;;5065926;28;1858;-40
2024/04/06 07:17:18;;;;;;;;;;;15.20;34.40;16.90;98553.00;;;;5086960;28;1932;-40
2024/04/06 07:19:44;;;;;;;;;;;15.20;34.40;17.00;98566.00;;;;5070040;28;1741;-40
2024/04/06 07:22:11;;;;;;;;;;;15.30;34.40;17.00;98551.00;;;;5074005;28;1538;-40
2024/04/06 07:24:39;;;;;;;;;;;15.40;34.40;17.00;98550.00;;;;5072870;28;1938;-40
2024/04/06 07:27:06;;;;;;;;;;;15.30;34.30;17.10;98559.00;;;;5068762;28;2261;-40
2024/04/06 07:29:32;;;;;;;;;;;15.40;34.30;17.10;98569.00;;;;5072924;28;1906;-40
2024/04/06 07:31:59;;;;;;;;;;;15.40;34.30;17.10;98577.00;;;;5064284;28;1606;-40
2024/04/06 07:34:25;;;;;;;;;;;15.40;34.40;17.20;98580.00;;;;5074265;28;1688;-40
2024/04/06 07:36:52;;;;;;;;;;;15.40;34.30;17.20;98584.00;;;;5066435;28;1658;-40
2024/04/06 07:39:19;;;;;;;;;;;15.50;34.30;17.20;98590.00;;;;5075461;28;1693;-40
2024/04/06 07:41:47;;;;;;;;;;;15.50;34.30;17.20;98591.00;;;;5067525;28;1541;-40
2024/04/06 07:44:13;;;;;;;;;;;15.60;34.30;17.20;98590.00;;;;5080210;28;1806;-40
2024/04/06 07:46:40;;;;;;;;;;;15.60;34.40;17.30;98596.00;;;;5068414;28;1935;-40
2024/04/06 07:49:06;;;;;;;;;;;15.60;34.30;17.30;98597.00;;;;5071259;28;1988;-40
2024/04/06 07:51:33;;;;;;;;;;;15.60;34.20;17.40;98592.00;;;;5072645;28;1607;-40
2024/04/06 07:54:00;;;;;;;;;;;15.60;34.30;17.40;98598.00;;;;5069696;28;1803;-40
2024/04/06 07:56:27;;;;;;;;;;;15.60;34.30;17.40;98594.00;;;;5065052;28;1673;-40
2024/04/06 07:58:54;;;;;;;;;;;15.60;34.40;17.40;98589.00;;;;5060871;28;1832;-40
2024/04/06 08:01:21;;;;;;;;;;;15.60;34.30;17.40;98582.00;;;;5072811;28;1717;-40
2024/04/06 08:03:48;;;;;;;;;;;15.70;34.40;17.40;98585.00;;;;5069543;28;1693;-40
2024/04/06 08:06:16;;;;;;;;;;;15.70;34.40;17.40;98580.00;;;;5073496;28;1613;-40
2024/04/06 08:08:43;;;;;;;;;;;15.70;34.30;17.50;98588.00;;;;5064118;28;1977;-40
2024/04/06 08:11:11;;;;;;;;;;;15.70;34.30;17.50;98581.00;;;;5070660;28;1444;-40
2024/04/06 08:13:37;;;;;;;;;;;15.70;34.30;17.50;98595.00;;;;5071206;28;1931;-40
2024/04/06 08:16:06;;;;;;;;;;;15.70;34.30;17.50;98594.00;;;;5062072;28;1669;-40
2024/04/06 08:18:32;;;;;;;;;;;15.70;34.30;17.60;98582.00;;;;5064713;28;1896;-40
2024/04/06 08:20:59;;;;;;;;;;;15.80;34.30;17.60;98583.00;;;;5063169;28;1928;-40
2024/04/06 08:23:25;;;;;;;;;;;15.80;34.30;17.60;98580.00;;;;5068154;28;1689;-40
2024/04/06 08:25:54;;;;;;;;;;;15.80;34.30;17.60;98574.00;;;;5062269;28;1683;-40
2024/04/06 08:28:21;;;;;;;;;;;15.80;34.30;17.60;98578.00;;;;5070638;28;1914;-40
2024/04/06 08:30:49;;;;;;;;;;;15.80;34.30;17.60;98568.00;;;;5064674;28;1815;-40
2024/04/06 08:33:16;;;;;;;;;;;15.80;34.30;17.60;98574.00;;;;5070640;28;1682;-41
2024/04/06 08:35:44;;;;;;;;;;;15.80;34.30;17.70;98556.00;;;;5064600;28;1681;-40
2024/04/06 08:38:11;;;;;;;;;;;15.80;34.30;17.60;98565.00;;;;5068041;28;1693;-40
2024/04/06 08:40:41;;;;;;;;;;;15.80;34.40;17.60;98585.00;;;;5064627;28;1802;-40
2024/04/06 08:43:11;;;;;;;;;;;15.80;34.40;17.60;98564.00;;;;5067269;28;1678;-40
2024/04/06 08:45:38;;;;;;;;;;;15.80;34.40;17.70;98570.00;;;;5065192;28;1685;-40
2024/04/06 08:48:06;;;;;;;;;;;15.80;34.40;17.60;98570.00;;;;5064226;28;1733;-40
2024/04/06 08:50:34;;;;;;;;;;;15.80;34.40;17.60;98567.00;;;;5066922;28;1983;-40
2024/04/06 08:53:00;;;;;;;;;;;15.80;34.40;17.60;98570.00;;;;5066912;28;1690;-40
2024/04/06 08:55:27;;;;;;;;;;;15.80;34.40;17.70;98583.00;;;;5068741;28;1657;-40
2024/04/06 08:57:53;;;;;;;;;;;15.80;34.40;17.70;98576.00;;;;5063213;28;1903;-40
2024/04/06 09:00:23;;;;;;;;;;;15.80;34.40;17.70;98581.00;;;;5063676;28;1954;-40
2024/04/06 09:02:52;;;;;;;;;;;15.80;34.40;17.70;98577.00;;;;5064765;28;1569;-38
2024/04/06 09:05:21;;;;;;;;;;;15.80;34.50;17.60;98574.00;;;;5083625;22;1607;-88
2024/04/06 09:07:49;;;;;;;;;;;15.80;34.50;17.60;98574.00;;;;5061420;28;1857;-88
2024/04/06 09:10:16;;;;;;;;;;;15.80;34.50;17.70;98562.00;;;;5048910;28;2159;-89
2024/04/06 09:12:49;;;;;;;;;;;15.80;34.50;17.70;98528.00;;;;5050779;28;1974;-89
2024/04/06 09:15:17;;;;;;;;;;;15.80;34.60;17.70;98605.00;;;;5051960;28;1415;-89
2024/04/06 09:17:43;;;;;;;;;;;15.80;34.50;17.70;98502.00;;;;5054978;28;1657;-88
2024/04/06 09:20:12;;;;;;;;;;;15.80;34.40;17.70;98579.00;;;;5055557;28;1526;-88
2024/04/06 09:22:40;;;;;;;;;;;15.80;34.50;17.60;98543.00;;;;5052488;28;1697;-90
2024/04/06 09:25:09;;;;;;;;;;;15.80;34.60;17.70;98571.00;;;;5054905;28;1627;-89
2024/04/06 09:27:42;;;;;;;;;;;15.90;34.60;17.70;98505.00;;;;5058414;28;1491;-88
2024/04/06 09:30:15;;;;;;;;;;;15.90;34.60;17.60;98597.00;;;;5055994;28;1903;-88
2024/04/06 09:32:41;;;;;;;;;;;15.90;34.60;17.70;98575.00;;;;5052550;28;1425;-88
2024/04/06 09:35:08;;;;;;;;;;;15.90;34.60;17.80;98555.00;;;;5056260;28;1631;-88
2024/04/06 09:37:35;;;;;;;;;;;15.90;34.60;17.70;98570.00;;;;5061534;28;1634;-88
2024/04/06 09:40:06;;;;;;;;;;;15.90;34.60;17.70;98563.00;;;;5055551;28;1688;-89
2024/04/06 09:42:33;;;;;;;;;;;15.90;34.60;17.70;98490.00;;;;5049921;28;1669;-88
2024/04/06 09:45:00;;;;;;;;;;;15.90;34.60;17.70;98486.00;;;;5055164;28;1686;-89
2024/04/06 09:47:26;;;;;;;;;;;15.90;34.60;17.80;98523.00;;;;5055326;28;1649;-88
2024/04/06 09:49:53;;;;;;;;;;;15.90;34.60;17.70;98608.00;;;;5053295;28;1883;-89
2024/04/06 09:52:20;;;;;;;;;;;15.90;34.60;17.80;98503.00;;;;5059136;28;1717;-87
2024/04/06 09:54:47;;;;;;;;;;;15.90;34.60;17.80;98570.00;;;;5048371;28;1666;-89
2024/04/06 09:57:14;;;;;;;;;;;15.90;34.60;17.80;98521.00;;;;5058782;28;1593;-88
2024/04/06 09:59:43;;;;;;;;;;;15.90;34.60;17.80;98547.00;;;;5058509;28;1796;-89
2024/04/06 10:02:21;;;;;;;;;;;16.00;34.60;17.80;98500.00;;;;5054619;28;1582;-88
2024/04/06 10:04:54;;;;;;;;;;;16.00;34.60;17.80;98548.00;;;;5053811;28;1629;-88
2024/04/06 10:07:38;;;;;;;;;;;16.00;34.60;17.70;98523.00;;;;5056506;28;1687;-87
2024/04/06 10:10:06;;;;;;;;;;;16.00;34.50;17.80;98528.00;;;;5053047;28;1902;-88
2024/04/06 10:12:36;;;;;;;;;;;16.00;34.50;17.70;98529.00;;;;5053262;28;1562;-87
2024/04/06 10:15:11;;;;;;;;;;;16.00;34.50;17.80;98538.00;;;;5057630;28;1798;-88
2024/04/06 10:17:45;;;;;;;;;;;16.00;34.60;17.80;98527.00;;;;5057916;28;1629;-88
2024/04/06 10:20:13;;;;;;;;;;;16.00;34.60;17.70;98481.00;;;;5051578;28;1783;-88
2024/04/06 10:22:49;;;;;;;;;;;16.00;34.50;17.80;98500.00;;;;5056528;28;1622;-88
2024/04/06 10:25:18;;;;;;;;;;;16.00;34.60;17.80;98499.00;;;;5075839;28;1709;-88
2024/04/06 10:28:06;;;;;;;;;;;16.00;34.50;17.80;98503.00;;;;5050491;28;1850;-88
2024/04/06 10:30:46;;;;;;;;;;;16.10;34.50;17.80;98512.00;;;;5056054;28;1895;-88
2024/04/06 10:33:26;;;;;;;;;;;16.10;34.50;17.80;98505.00;;;;5056971;28;1578;-88
2024/04/06 10:35:54;;;;;;;;;;;16.10;34.50;17.80;98497.00;;;;5064844;28;1711;-88
2024/04/06 10:38:21;;;;;;;;;;;16.10;34.50;17.90;98499.00;;;;5068453;28;1631;-89
2024/04/06 10:40:56;;;;;;;;;;;16.10;34.50;17.90;98503.00;;;;5069024;28;1824;-88
2024/04/06 10:43:22;;;;;;;;;;;16.10;34.50;17.90;98495.00;;;;5046334;28;1459;-88
2024/04/06 10:45:53;;;;;;;;;;;16.10;34.50;17.70;98562.00;;;;5058084;28;1731;-90
2024/04/06 10:48:20;;;;;;;;;;;16.10;34.50;17.90;98472.00;;;;5054123;28;1424;-89
2024/04/06 10:50:47;;;;;;;;;;;16.10;34.50;17.90;98469.00;;;;5059898;28;1977;-89
2024/04/06 10:53:18;;;;;;;;;;;16.10;34.50;17.90;98477.00;;;;5068560;28;1857;-90
2024/04/06 10:55:45;;;;;;;;;;;16.10;34.60;17.90;98496.00;;;;5063456;28;1775;-89
2024/04/06 10:58:12;;;;;;;;;;;16.10;34.60;17.90;98452.00;;;;5068353;28;1756;-89
2024/04/06 11:00:57;;;;;;;;;;;16.00;34.40;17.90;98509.00;;;;5060538;28;1834;-90
2024/04/06 11:03:24;;;;;;;;;;;16.10;34.70;17.90;98551.00;;;;5064026;28;1681;-88
2024/04/06 11:05:50;;;;;;;;;;;16.00;34.50;17.90;98508.00;;;;5060265;28;1772;-88
2024/04/06 11:08:17;;;;;;;;;;;16.00;34.60;17.90;98499.00;;;;5058689;28;1751;-88
2024/04/06 11:10:43;;;;;;;;;;;16.00;34.50;17.90;98445.00;;;;5064044;28;1911;-88
2024/04/06 11:13:10;;;;;;;;;;;16.00;34.50;17.90;98438.00;;;;5060004;28;1573;-88
2024/04/06 11:15:36;;;;;;;;;;;16.10;34.60;17.90;98495.00;;;;5055168;28;1786;-88
2024/04/06 11:18:05;;;;;;;;;;;16.00;34.60;17.90;98488.00;;;;5060158;28;1784;-88
2024/04/06 11:20:31;;;;;;;;;;;16.10;34.70;17.90;98481.00;;;;5055990;28;1511;-88
2024/04/06 11:22:58;;;;;;;;;;;16.10;34.70;18.00;98470.00;;;;5056120;28;1714;-87
2024/04/06 11:25:26;;;;;;;;;;;16.10;34.60;18.00;98468.00;;;;5054558;28;1481;-86
2024/04/06 11:27:53;;;;;;;;;;;16.10;34.60;18.00;98483.00;;;;5045742;28;1836;-87
2024/04/06 11:30:24;;;;;;;;;;;16.10;34.60;18.00;98479.00;;;;5057859;28;1977;-86
2024/04/06 11:32:57;;;;;;;;;;;16.10;34.70;18.00;98431.00;;;;5054667;28;1550;-86
2024/04/06 11:35:26;;;;;;;;;;;16.10;34.70;18.00;98474.00;;;;5052722;28;1642;-88
2024/04/06 11:37:53;;;;;;;;;;;16.10;34.70;18.00;98506.00;;;;5058735;28;1769;-87
2024/04/06 11:40:19;;;;;;;;;;;16.10;34.70;18.00;98468.00;;;;5064160;28;1770;-87
2024/04/06 11:42:46;;;;;;;;;;;16.10;34.60;18.00;98391.00;;;;5060613;28;1751;-87
2024/04/06 11:45:12;;;;;;;;;;;16.10;34.60;18.00;98426.00;;;;5058712;28;1794;-88
2024/04/06 11:48:06;;;;;;;;;;;16.10;34.60;18.00;98472.00;;;;5069525;28;1578;-86
2024/04/06 11:50:33;;;;;;;;;;;16.10;34.70;18.00;98485.00;;;;5052701;28;1906;-87
2024/04/06 11:53:00;;;;;;;;;;;16.10;34.70;18.00;98503.00;;;;5052757;28;1402;-87
2024/04/06 11:55:40;;;;;;;;;;;16.10;34.60;18.10;98470.00;;;;5052137;28;1655;-87
2024/04/06 11:58:07;;;;;;;;;;;16.10;34.70;18.10;98455.00;;;;5056631;28;1483;-87
2024/04/06 12:00:35;;;;;;;;;;;16.10;34.60;18.10;98462.00;;;;5053045;28;1685;-86
2024/04/06 12:03:04;;;;;;;;;;;16.10;34.60;18.10;98451.00;;;;5057444;28;1373;-86
2024/04/06 12:05:30;;;;;;;;;;;16.10;34.70;18.10;98463.00;;;;5052746;28;1780;-86
2024/04/06 12:07:59;;;;;;;;;;;16.10;34.60;18.10;98473.00;;;;5054065;28;1677;-86
2024/04/06 12:10:25;;;;;;;;;;;16.10;34.60;18.10;98393.00;;;;5053619;28;1910;-88
2024/04/06 12:12:52;;;;;;;;;;;16.10;34.50;18.10;98453.00;;;;5050786;28;1784;-86
2024/04/06 12:15:18;;;;;;;;;;;16.20;34.70;18.10;98460.00;;;;5068058;28;1395;-87